createdAt,value
2019-05-13T00:00:34.257Z,45.44
2019-05-13T00:03:03.757Z,46.47
2019-05-13T00:05:33.990Z,45.99
2019-05-13T00:08:03.679Z,46.01
2019-05-13T00:10:35.047Z,45.71
2019-05-13T00:13:04.426Z,45.22
2019-05-13T00:15:34.188Z,45.05
2019-05-13T00:18:03.990Z,45.54
2019-05-13T00:20:34.063Z,44.56
2019-05-13T00:23:03.891Z,44.94
2019-05-13T00:25:35.509Z,44.29
2019-05-13T00:28:04.404Z,45.08
2019-05-13T00:30:34.193Z,45.45
2019-05-13T00:33:03.995Z,44.86
2019-05-13T00:35:33.852Z,44.95
2019-05-13T00:38:03.906Z,44.70
2019-05-13T00:40:34.002Z,45.99
2019-05-13T00:43:03.992Z,47.17
2019-05-13T00:45:33.893Z,47.18
2019-05-13T00:48:04.673Z,46.48
2019-05-13T00:50:35.291Z,46.52
2019-05-13T00:53:04.614Z,47.62
2019-05-13T00:55:34.695Z,46.70
2019-05-13T00:58:04.863Z,45.98
2019-05-13T01:00:34.095Z,45.62
2019-05-13T01:03:03.960Z,44.90
2019-05-13T01:05:33.993Z,45.60
2019-05-13T01:08:05.840Z,45.28
2019-05-13T01:10:34.849Z,45.89
2019-05-13T01:13:04.657Z,45.99
2019-05-13T01:15:34.635Z,45.23
2019-05-13T01:18:04.169Z,46.25
2019-05-13T01:20:34.776Z,46.18
2019-05-13T01:23:04.059Z,47.05
2019-05-13T01:25:34.343Z,46.59
2019-05-13T01:28:04.619Z,46.54
2019-05-13T01:30:34.589Z,47.31
2019-05-13T01:33:04.323Z,48.10
2019-05-13T01:35:34.228Z,48.49
2019-05-13T01:38:04.544Z,48.64
2019-05-13T01:40:34.886Z,48.85
2019-05-13T01:43:04.218Z,48.52
2019-05-13T01:45:33.861Z,48.93
2019-05-13T01:48:07.237Z,47.72
2019-05-13T01:50:34.056Z,48.29
2019-05-13T01:53:04.314Z,47.83
2019-05-13T01:55:34.139Z,47.92
2019-05-13T01:58:04.206Z,47.85
2019-05-13T02:00:35.395Z,49.12
2019-05-13T02:03:04.376Z,48.89
2019-05-13T02:05:37.013Z,48.69
2019-05-13T02:08:05.750Z,47.46
2019-05-13T02:10:54.317Z,47.26
2019-05-13T02:13:24.346Z,47.64
2019-05-13T02:15:55.574Z,47.54
2019-05-13T02:18:24.839Z,48.24
2019-05-13T02:20:55.382Z,48.76
2019-05-13T02:23:24.370Z,47.21
2019-05-13T02:25:54.320Z,48.20
2019-05-13T02:28:33.586Z,47.62
2019-05-13T02:31:02.266Z,48.25
2019-05-13T02:33:33.977Z,49.04
2019-05-13T02:36:02.889Z,49.35
2019-05-13T02:38:35.474Z,48.45
2019-05-13T02:41:03.057Z,48.50
2019-05-13T02:43:33.334Z,50.28
2019-05-13T02:46:04.525Z,49.99
2019-05-13T02:48:35.023Z,50.31
2019-05-13T02:51:04.159Z,49.74
2019-05-13T02:53:33.735Z,49.94
2019-05-13T02:56:03.286Z,50.71
2019-05-13T02:58:33.270Z,50.49
2019-05-13T03:01:03.556Z,50.37
2019-05-13T03:03:33.154Z,50.46
2019-05-13T03:06:02.891Z,50.96
2019-05-13T03:08:41.046Z,51.37
2019-05-13T03:11:03.317Z,50.83
2019-05-13T03:13:32.858Z,51.30
2019-05-13T03:16:15.476Z,51.34
2019-05-13T03:18:45.147Z,51.30
2019-05-13T03:21:13.807Z,51.38
2019-05-13T03:23:43.946Z,52.26
2019-05-13T03:26:13.516Z,51.74
2019-05-13T03:28:43.977Z,50.72
2019-05-13T03:31:16.661Z,51.73
2019-05-13T03:33:46.698Z,51.67
2019-05-13T03:36:16.379Z,51.39
2019-05-13T03:39:01.827Z,52.47
2019-05-13T03:41:16.965Z,52.85
2019-05-13T03:43:46.485Z,51.65
2019-05-13T03:46:15.318Z,52.60
2019-05-13T03:48:45.396Z,51.86
2019-05-13T03:51:14.255Z,50.82
2019-05-13T03:53:43.808Z,51.24
2019-05-13T03:56:13.265Z,50.35
2019-05-13T03:58:43.651Z,55.37
2019-05-13T04:01:13.533Z,49.90
2019-05-13T04:03:44.060Z,48.40
2019-05-13T04:06:14.059Z,49.63
2019-05-13T04:08:43.795Z,51.43
2019-05-13T04:11:13.250Z,50.07
2019-05-13T04:13:43.079Z,49.16
2019-05-13T04:16:13.444Z,50.57
2019-05-13T04:18:44.604Z,51.18
2019-05-13T04:21:13.709Z,50.24
2019-05-13T04:23:43.105Z,52.79
2019-05-13T04:26:14.730Z,52.38
2019-05-13T04:28:43.552Z,52.57
2019-05-13T04:31:14.528Z,50.72
2019-05-13T04:33:43.519Z,49.79
2019-05-13T04:36:13.693Z,49.53
2019-05-13T04:38:44.129Z,50.50
2019-05-13T04:41:13.147Z,50.01
2019-05-13T04:43:43.544Z,50.39
2019-05-13T04:46:14.275Z,50.88
2019-05-13T04:48:44.622Z,50.40
2019-05-13T04:51:14.276Z,50.13
2019-05-13T04:53:43.743Z,50.26
2019-05-13T04:56:13.597Z,50.21
2019-05-13T04:58:43.478Z,49.72
2019-05-13T05:01:17.727Z,50.18
2019-05-13T05:03:55.294Z,50.70
2019-05-13T05:06:32.852Z,49.33
2019-05-13T05:09:08.765Z,50.46
2019-05-13T05:11:56.500Z,49.38
2019-05-13T05:14:46.625Z,48.90
2019-05-13T05:17:24.485Z,47.58
2019-05-13T05:20:07.923Z,47.12
2019-05-13T05:22:57.456Z,47.33
2019-05-13T05:26:01.255Z,47.15
2019-05-13T05:28:41.234Z,48.02
2019-05-13T05:31:18.270Z,48.14
2019-05-13T05:33:56.295Z,48.04
2019-05-13T05:36:52.697Z,47.74
2019-05-13T05:39:28.404Z,47.54
2019-05-13T05:42:02.175Z,47.45
2019-05-13T05:44:32.400Z,48.05
2019-05-13T05:47:03.360Z,47.26
2019-05-13T05:49:32.636Z,46.31
2019-05-13T05:52:04.350Z,46.56
2019-05-13T05:54:35.907Z,46.94
2019-05-13T05:57:06.005Z,46.88
2019-05-13T05:59:35.656Z,47.36
2019-05-13T06:02:05.339Z,48.04
2019-05-13T06:04:34.000Z,47.03
2019-05-13T06:07:03.595Z,47.62
2019-05-13T06:09:32.766Z,46.90
2019-05-13T06:12:02.091Z,47.76
2019-05-13T06:14:32.669Z,49.07
2019-05-13T06:17:02.708Z,49.92
2019-05-13T06:19:32.186Z,50.10
2019-05-13T06:22:02.359Z,49.73
2019-05-13T06:24:31.923Z,49.42
2019-05-13T06:27:01.812Z,49.18
2019-05-13T06:29:31.641Z,50.26
2019-05-13T06:32:15.055Z,50.20
2019-05-13T06:34:33.139Z,50.41
2019-05-13T06:37:02.156Z,50.32
2019-05-13T06:39:31.974Z,50.28
2019-05-13T06:42:03.033Z,50.50
2019-05-13T06:44:31.987Z,51.12
2019-05-13T06:47:02.677Z,50.74
2019-05-13T06:49:32.226Z,51.11
2019-05-13T06:52:01.952Z,51.36
2019-05-13T06:54:33.063Z,51.67
2019-05-13T06:57:04.348Z,50.75
2019-05-13T06:59:32.106Z,50.42
2019-05-13T07:02:02.113Z,49.84
2019-05-13T07:04:32.719Z,49.86
2019-05-13T07:07:12.251Z,50.11
2019-05-13T07:09:32.703Z,50.84
2019-05-13T07:12:03.171Z,50.01
2019-05-13T07:14:32.642Z,50.11
2019-05-13T07:17:02.118Z,49.98
2019-05-13T07:19:32.222Z,49.93
2019-05-13T07:22:02.723Z,50.49
2019-05-13T07:24:32.433Z,51.75
2019-05-13T07:27:02.032Z,48.66
2019-05-13T07:29:32.462Z,48.21
2019-05-13T07:32:01.961Z,48.79
2019-05-13T07:34:33.623Z,48.08
2019-05-13T07:37:02.354Z,49.58
2019-05-13T07:39:32.943Z,48.23
2019-05-13T07:42:05.271Z,49.35
2019-05-13T07:44:32.643Z,49.35
2019-05-13T07:47:03.300Z,48.38
2019-05-13T07:49:32.194Z,47.88
2019-05-13T07:52:01.813Z,47.58
2019-05-13T07:54:33.014Z,48.04
2019-05-13T07:57:02.185Z,46.07
2019-05-13T07:59:32.070Z,46.07
2019-05-13T08:02:02.207Z,46.84
2019-05-13T08:04:33.380Z,46.85
2019-05-13T08:07:02.490Z,46.83
2019-05-13T08:09:32.162Z,47.06
2019-05-13T08:12:10.240Z,48.73
2019-05-13T08:14:34.063Z,48.88
2019-05-13T08:17:03.072Z,48.99
2019-05-13T08:19:32.794Z,49.94
2019-05-13T08:22:02.400Z,49.72
2019-05-13T08:24:31.836Z,49.07
2019-05-13T08:27:02.113Z,49.27
2019-05-13T08:29:32.893Z,48.50
2019-05-13T08:32:02.976Z,49.68
2019-05-13T08:34:33.181Z,49.53
2019-05-13T08:37:03.443Z,49.73
2019-05-13T08:39:38.086Z,49.70
2019-05-13T08:42:15.572Z,49.80
2019-05-13T08:44:34.355Z,51.13
2019-05-13T08:47:03.605Z,50.43
2019-05-13T08:49:32.763Z,50.04
2019-05-13T08:52:02.037Z,50.33
2019-05-13T08:54:32.762Z,50.12
2019-05-13T08:57:02.914Z,50.09
2019-05-13T08:59:32.308Z,50.84
2019-05-13T09:02:04.082Z,50.09
2019-05-13T09:04:32.809Z,49.08
2019-05-13T09:07:02.634Z,48.55
2019-05-13T09:09:32.270Z,48.22
2019-05-13T09:12:02.598Z,47.52
2019-05-13T09:14:32.506Z,48.25
2019-05-13T09:17:01.949Z,46.88
2019-05-13T09:19:32.264Z,47.26
2019-05-13T09:22:02.981Z,46.88
2019-05-13T09:24:37.340Z,47.09
2019-05-13T09:27:02.372Z,45.85
2019-05-13T09:29:32.235Z,45.54
2019-05-13T09:32:03.752Z,45.84
2019-05-13T09:34:33.188Z,45.60
2019-05-13T09:37:02.695Z,45.60
2019-05-13T09:39:32.487Z,45.46
2019-05-13T09:44:32.852Z,44.24
2019-05-13T09:47:02.808Z,44.56
2019-05-13T09:49:32.991Z,44.70
2019-05-13T09:52:02.184Z,45.11
2019-05-13T09:54:32.757Z,45.28
2019-05-13T09:57:01.985Z,45.29
2019-05-13T09:59:31.786Z,46.08
2019-05-13T10:02:03.136Z,45.75
2019-05-13T10:04:32.019Z,46.56
2019-05-13T10:07:02.138Z,46.37
2019-05-13T10:09:32.691Z,46.54
2019-05-13T10:12:03.178Z,46.24
2019-05-13T10:14:32.903Z,46.27
2019-05-13T10:17:06.090Z,47.51
2019-05-13T10:19:32.776Z,46.56
2019-05-13T10:22:01.892Z,45.84
2019-05-13T10:24:32.696Z,43.95
2019-05-13T10:27:02.588Z,43.13
2019-05-13T10:29:32.236Z,42.15
2019-05-13T10:32:02.707Z,42.67
2019-05-13T10:34:32.491Z,42.67
2019-05-13T10:37:02.777Z,44.29
2019-05-13T10:39:31.704Z,44.72
2019-05-13T10:42:03.019Z,44.74
2019-05-13T10:44:30.838Z,44.70
2019-05-13T10:47:01.982Z,44.55
2019-05-13T10:49:32.759Z,44.01
2019-05-13T10:52:02.877Z,43.97
2019-05-13T10:54:32.509Z,44.22
2019-05-13T10:57:03.947Z,43.67
2019-05-13T10:59:31.629Z,43.90
2019-05-13T11:02:02.156Z,44.05
2019-05-13T11:04:32.698Z,43.72
2019-05-13T11:07:03.017Z,42.10
2019-05-13T11:09:32.925Z,44.04
2019-05-13T11:12:02.203Z,43.32
2019-05-13T11:14:32.269Z,43.13
2019-05-13T11:17:01.727Z,41.79
2019-05-13T11:19:36.163Z,42.04
2019-05-13T11:22:03.379Z,42.38
2019-05-13T11:24:32.666Z,42.47
2019-05-13T11:27:02.825Z,42.04
2019-05-13T11:29:32.653Z,42.51
2019-05-13T11:32:03.237Z,43.17
2019-05-13T11:34:32.882Z,41.92
2019-05-13T11:37:03.654Z,42.65
2019-05-13T11:39:32.851Z,41.58
2019-05-13T11:42:02.270Z,42.38
2019-05-13T11:44:32.248Z,42.95
2019-05-13T11:47:02.434Z,43.01
2019-05-13T11:49:31.838Z,42.34
2019-05-13T11:54:31.117Z,41.56
2019-05-13T11:57:02.564Z,42.84
2019-05-13T11:59:32.745Z,41.81
2019-05-13T12:02:07.434Z,42.93
2019-05-13T12:04:49.216Z,42.18
2019-05-13T12:07:17.872Z,40.85
2019-05-13T12:09:46.525Z,42.26
2019-05-13T12:12:30.488Z,41.37
2019-05-13T12:15:22.474Z,40.89
2019-05-13T12:17:24.781Z,39.96
2019-05-13T12:20:20.823Z,41.32
2019-05-13T12:22:53.810Z,40.08
2019-05-13T12:25:22.631Z,42.03
2019-05-13T12:28:07.427Z,41.89
2019-05-13T12:30:44.386Z,42.10
2019-05-13T12:33:13.673Z,41.93
2019-05-13T12:35:42.412Z,42.45
2019-05-13T12:38:13.428Z,42.59
2019-05-13T12:40:43.109Z,42.38
2019-05-13T12:43:13.455Z,42.63
2019-05-13T12:45:43.553Z,43.56
2019-05-13T12:48:13.923Z,42.60
2019-05-13T12:50:44.252Z,42.63
2019-05-13T12:53:13.070Z,42.45
2019-05-13T12:55:41.740Z,42.52
2019-05-13T12:58:12.166Z,42.76
2019-05-13T13:00:45.022Z,43.95
2019-05-13T13:03:13.738Z,43.95
2019-05-13T13:05:43.322Z,44.08
2019-05-13T13:08:24.702Z,44.00
2019-05-13T13:10:46.570Z,44.56
2019-05-13T13:13:51.584Z,44.61
2019-05-13T13:15:52.928Z,44.95
2019-05-13T13:18:22.426Z,45.57
2019-05-13T13:21:00.295Z,45.21
2019-05-13T13:23:23.716Z,45.13
2019-05-13T13:25:56.669Z,44.76
2019-05-13T13:30:53.505Z,44.87
2019-05-13T13:33:22.299Z,45.20
2019-05-13T13:35:59.563Z,44.40
2019-05-13T13:38:25.318Z,44.69
2019-05-13T13:43:24.911Z,44.31
2019-05-13T13:46:07.544Z,45.00
2019-05-13T13:48:25.726Z,44.93
2019-05-13T13:50:56.522Z,44.84
2019-05-13T13:53:26.455Z,44.95
2019-05-13T13:55:56.159Z,45.08
2019-05-13T13:58:25.888Z,44.96
2019-05-13T14:01:05.834Z,44.99
2019-05-13T14:03:25.085Z,44.15
2019-05-13T14:05:54.287Z,43.46
2019-05-13T14:06:25.319Z,43.48
2019-05-13T14:06:29.233Z,41.89
2019-05-13T14:06:58.554Z,44.82
2019-05-13T14:07:09.010Z,45.10
2019-05-13T14:08:23.580Z,43.85
2019-05-13T14:10:52.407Z,44.12
2019-05-13T14:13:21.941Z,44.44
2019-05-13T14:15:52.779Z,43.85
2019-05-13T14:18:26.552Z,44.15
2019-05-13T14:20:52.888Z,44.42
2019-05-13T14:23:22.076Z,43.50
2019-05-13T14:25:52.961Z,43.93
2019-05-13T14:28:23.016Z,43.60
2019-05-13T14:30:51.653Z,45.41
2019-05-13T14:33:20.324Z,43.18
2019-05-13T14:35:48.971Z,43.40
2019-05-13T14:38:17.756Z,43.06
2019-05-13T14:40:51.847Z,43.11
2019-05-13T14:43:22.970Z,42.76
2019-05-13T14:45:53.027Z,43.20
2019-05-13T14:48:22.371Z,42.94
2019-05-13T14:50:52.316Z,43.75
2019-05-13T14:53:32.397Z,43.31
2019-05-13T14:56:02.962Z,43.90
2019-05-13T14:58:45.199Z,43.87
2019-05-13T15:01:19.770Z,44.50
2019-05-13T15:03:48.900Z,42.52
2019-05-13T15:06:17.664Z,44.25
2019-05-13T15:08:46.492Z,44.51
2019-05-13T15:11:16.860Z,45.10
2019-05-13T15:13:47.219Z,45.90
2019-05-13T15:16:17.551Z,46.46
2019-05-13T15:18:46.215Z,45.77
2019-05-13T15:21:14.784Z,45.95
2019-05-13T15:23:46.023Z,46.14
2019-05-13T15:26:14.699Z,45.78
2019-05-13T15:28:43.549Z,46.03
2019-05-13T15:31:12.219Z,46.37
2019-05-13T15:33:41.584Z,46.43
2019-05-13T15:36:11.917Z,46.01
2019-05-13T15:38:46.092Z,45.94
2019-05-13T15:41:15.869Z,46.36
2019-05-13T15:43:46.667Z,45.94
2019-05-13T15:46:15.578Z,45.60
2019-05-13T15:48:44.162Z,45.72
2019-05-13T15:51:12.807Z,45.25
2019-05-13T15:53:43.684Z,43.87
2019-05-13T15:56:12.506Z,45.18
2019-05-13T15:58:43.590Z,44.56
2019-05-13T16:01:12.521Z,44.40
2019-05-13T16:03:41.693Z,44.90
2019-05-13T16:06:17.542Z,44.98
2019-05-13T16:08:57.175Z,45.44
2019-05-13T16:11:16.615Z,44.95
2019-05-13T16:13:54.040Z,45.74
2019-05-13T16:16:32.283Z,46.07
2019-05-13T16:19:00.549Z,46.71
2019-05-13T16:21:32.168Z,46.78
2019-05-13T16:24:02.657Z,47.43
2019-05-13T16:26:32.073Z,47.70
2019-05-13T16:29:02.161Z,47.67
2019-05-13T16:31:31.853Z,47.22
2019-05-13T16:34:01.565Z,46.87
2019-05-13T16:36:36.298Z,47.46
2019-05-13T16:39:08.581Z,46.93
2019-05-13T16:41:42.603Z,47.17
2019-05-13T16:44:11.977Z,47.91
2019-05-13T16:46:44.848Z,47.87
2019-05-13T16:49:13.583Z,47.68
2019-05-13T16:51:42.826Z,48.11
2019-05-13T16:54:11.785Z,48.39
2019-05-13T16:56:42.039Z,48.39
2019-05-13T16:59:11.019Z,48.28
2019-05-13T17:01:41.829Z,48.27
2019-05-13T17:04:12.364Z,48.55
2019-05-13T17:06:41.642Z,48.89
2019-05-13T17:09:11.525Z,49.06
2019-05-13T17:11:41.510Z,49.12
2019-05-13T17:14:10.574Z,49.04
2019-05-13T17:16:41.186Z,49.04
2019-05-13T17:19:11.852Z,49.05
2019-05-13T17:21:41.092Z,48.99
2019-05-13T17:24:12.319Z,49.14
2019-05-13T17:26:41.786Z,48.84
2019-05-13T17:29:12.032Z,49.15
2019-05-13T17:31:41.782Z,49.09
2019-05-13T17:34:12.080Z,48.73
2019-05-13T17:36:41.948Z,49.22
2019-05-13T17:39:12.486Z,48.93
2019-05-13T17:41:41.630Z,49.17
2019-05-13T17:44:11.649Z,49.10
2019-05-13T17:46:41.795Z,48.42
2019-05-13T17:49:11.854Z,48.42
2019-05-13T17:51:42.591Z,47.95
2019-05-13T17:54:11.972Z,48.59
2019-05-13T17:56:42.723Z,48.93
2019-05-13T17:59:11.706Z,49.34
2019-05-13T18:01:41.261Z,49.38
2019-05-13T18:04:11.870Z,50.45
2019-05-13T18:06:41.725Z,50.28
2019-05-13T18:09:11.930Z,49.97
2019-05-13T18:11:45.305Z,50.13
2019-05-13T18:14:14.093Z,50.16
2019-05-13T18:16:42.798Z,49.48
2019-05-13T18:19:12.119Z,49.03
2019-05-13T18:22:05.188Z,49.72
2019-05-13T18:24:35.183Z,49.69
2019-05-13T18:29:55.655Z,50.51
2019-05-13T18:32:26.216Z,50.91
2019-05-13T18:34:56.293Z,50.88
2019-05-13T18:37:25.986Z,51.70
2019-05-13T18:39:54.750Z,50.84
2019-05-13T18:42:23.410Z,51.22
2019-05-13T18:44:56.310Z,51.81
2019-05-13T18:47:25.056Z,52.38
2019-05-13T18:49:53.704Z,52.53
2019-05-13T18:52:22.500Z,52.50
2019-05-13T18:54:51.476Z,52.25
2019-05-13T18:57:21.323Z,53.53
2019-05-13T18:59:52.076Z,53.64
2019-05-13T19:02:21.446Z,54.35
2019-05-13T19:04:52.121Z,54.35
2019-05-13T19:07:21.888Z,53.46
2019-05-13T19:09:52.272Z,53.58
2019-05-13T19:12:21.949Z,53.58
2019-05-13T19:14:51.674Z,52.15
2019-05-13T19:17:22.345Z,52.40
2019-05-13T19:19:51.530Z,52.48
2019-05-13T19:22:21.445Z,52.95
2019-05-13T19:24:51.808Z,52.95
2019-05-13T19:27:23.793Z,52.13
2019-05-13T19:29:52.518Z,50.52
2019-05-13T19:32:21.985Z,50.52
2019-05-13T19:34:53.782Z,49.37
2019-05-13T19:37:22.665Z,49.34
2019-05-13T19:39:51.504Z,47.42
2019-05-13T19:42:22.369Z,46.89
2019-05-13T19:44:51.200Z,46.64
2019-05-13T19:47:20.168Z,45.97
2019-05-13T19:49:49.044Z,46.12
2019-05-13T19:52:17.775Z,45.55
2019-05-13T19:54:46.454Z,46.11
2019-05-13T19:57:15.080Z,46.41
2019-05-13T19:59:43.912Z,45.89
2019-05-13T20:02:12.589Z,46.30
2019-05-13T20:04:41.565Z,46.92
2019-05-13T20:07:11.900Z,46.92
2019-05-13T20:09:42.547Z,47.51
2019-05-13T20:12:11.332Z,47.57
2019-05-13T20:14:40.114Z,47.84
2019-05-13T20:17:09.285Z,48.20
2019-05-13T20:19:47.604Z,48.01
2019-05-13T20:22:08.542Z,48.65
2019-05-13T20:24:37.300Z,48.70
2019-05-13T20:27:05.948Z,48.72
2019-05-13T20:29:34.656Z,48.72
2019-05-13T20:32:03.408Z,48.13
2019-05-13T20:34:32.228Z,48.13
2019-05-13T20:37:02.089Z,48.69
2019-05-13T20:39:32.071Z,50.15
2019-05-13T20:42:01.578Z,50.15
2019-05-13T20:44:31.341Z,50.92
2019-05-13T20:47:01.550Z,51.35
2019-05-13T20:49:31.223Z,52.53
2019-05-13T20:52:00.200Z,52.55
2019-05-13T20:54:31.207Z,53.79
2019-05-13T20:57:01.788Z,54.18
2019-05-13T20:59:31.998Z,54.22
2019-05-13T21:02:02.251Z,54.67
2019-05-13T21:04:32.207Z,54.88
2019-05-13T21:07:02.089Z,54.69
2019-05-13T21:09:31.671Z,54.77
2019-05-13T21:12:01.744Z,54.17
2019-05-13T21:14:32.018Z,54.32
2019-05-13T21:17:01.462Z,54.75
2019-05-13T21:19:39.265Z,54.64
2019-05-13T21:22:00.373Z,54.20
2019-05-13T21:24:29.013Z,54.13
2019-05-13T21:26:57.721Z,53.43
2019-05-13T21:29:26.388Z,53.81
2019-05-13T21:31:55.095Z,54.04
2019-05-13T21:34:23.756Z,54.55
2019-05-13T21:36:52.440Z,54.57
2019-05-13T21:39:21.485Z,55.12
2019-05-13T21:41:51.935Z,54.87
2019-05-13T21:44:20.704Z,54.63
2019-05-13T21:46:51.416Z,55.11
2019-05-13T21:49:21.345Z,55.34
2019-05-13T21:51:52.045Z,54.96
2019-05-13T21:54:20.459Z,55.61
2019-05-13T21:56:51.468Z,56.11
2019-05-13T21:59:23.063Z,55.62
2019-05-13T22:01:52.079Z,55.73
2019-05-13T22:04:21.504Z,55.14
2019-05-13T22:06:50.368Z,50.24
2019-05-13T22:09:19.026Z,47.98
2019-05-13T22:11:47.716Z,46.12
2019-05-13T22:14:16.353Z,45.12
2019-05-13T22:16:45.089Z,44.55
2019-05-13T22:19:13.791Z,43.98
2019-05-13T22:21:42.579Z,43.73
2019-05-13T22:24:11.717Z,42.78
2019-05-13T22:26:42.038Z,43.08
2019-05-13T22:29:11.082Z,43.18
2019-05-13T22:31:41.821Z,46.16
2019-05-13T22:34:12.138Z,46.16
2019-05-13T22:36:40.451Z,47.36
2019-05-13T22:39:11.347Z,49.55
2019-05-13T22:41:41.887Z,51.05
2019-05-13T22:44:11.663Z,52.62
2019-05-13T22:46:41.310Z,53.31
2019-05-13T22:49:11.684Z,55.69
2019-05-13T22:51:41.326Z,57.17
2019-05-13T22:54:11.892Z,57.45
2019-05-13T22:56:41.254Z,58.06
2019-05-13T22:59:12.262Z,57.55
2019-05-13T23:01:41.913Z,59.20
2019-05-13T23:04:11.451Z,59.08
2019-05-13T23:06:41.023Z,57.66
2019-05-13T23:09:12.237Z,59.60
2019-05-13T23:11:41.784Z,59.95
2019-05-13T23:14:13.372Z,61.33
2019-05-13T23:16:42.171Z,61.78
2019-05-13T23:19:11.212Z,61.78
2019-05-13T23:21:41.846Z,61.54
2019-05-13T23:24:11.342Z,61.17
2019-05-13T23:26:42.274Z,61.92
2019-05-13T23:29:10.653Z,61.75
2019-05-13T23:31:41.329Z,61.04
2019-05-13T23:34:11.844Z,60.97
2019-05-13T23:36:42.273Z,60.43
2019-05-13T23:39:11.623Z,61.14
2019-05-13T23:41:41.635Z,61.71
2019-05-13T23:44:24.217Z,60.73
2019-05-13T23:46:42.066Z,61.78
2019-05-13T23:49:11.834Z,59.56
2019-05-13T23:51:41.359Z,60.63
2019-05-13T23:54:12.261Z,60.16
2019-05-13T23:56:41.692Z,59.31
2019-05-13T23:59:15.716Z,60.62
